SASA/SLA METAR and TAF weather

Enter ICAO airport designator
Station Type Date Time Source
SASA METAR 2021/05/12 01:00 UTC NOAA

SASA 120100Z 32003KT 8000 -DZ BKN012 OVC050 10/09 Q1025


Station Type Date Time Source
SASA Decoded METAR 2021/05/12 01:00 UTC NOAA

Salta Aerodrome, Argentina (SASA) 24-51S 065-29W 1221M
May 11, 2021 - 09:00 PM EDT / 2021.05.12 0100 UTC
Wind: from the NW (320 degrees) at 3 MPH (3 KT):0
Visibility: 4 mile(s):0
Sky conditions: overcast
Weather: light drizzle
Temperature: 50 F (10 C)
Dew Point: 48 F (9 C)
Relative Humidity: 93%
Pressure (altimeter): 30.27 in. Hg (1025 hPa)
ob: SASA 120100Z 32003KT 8000 -DZ BKN012 OVC050 10/09 Q1025
cycle: 1

Station Type Date Time Source
SASA TAF 2021/05/12 00:48 UTC NOAA

TAF TAF SASA 112300Z 1200/1224 36005KT 5000 DZ BKN010 OVC040 TX17/1218Z TN06/1210Z
BECMG 1212/1215 05010KT 9999 NSW SCT020 BKN060

Example: see airport list